sensor_id;sensor_type;location;lat;lon;timestamp;P1;durP1;ratioP1;P2;durP2;ratioP2
37655;SDS011;23498;50.958;3.124;2023-04-03T00:01:19;24.08;;;14.82;;
37655;SDS011;23498;50.958;3.124;2023-04-03T00:03:45;24.13;;;15.27;;
37655;SDS011;23498;50.958;3.124;2023-04-03T00:06:11;24.85;;;15.35;;
37655;SDS011;23498;50.958;3.124;2023-04-03T00:08:38;26.05;;;15.50;;
37655;SDS011;23498;50.958;3.124;2023-04-03T00:11:05;22.70;;;15.23;;
37655;SDS011;23498;50.958;3.124;2023-04-03T00:13:31;23.77;;;15.05;;
37655;SDS011;23498;50.958;3.124;2023-04-03T00:15:58;23.10;;;14.70;;
37655;SDS011;23498;50.958;3.124;2023-04-03T00:18:24;22.77;;;14.60;;
37655;SDS011;23498;50.958;3.124;2023-04-03T00:20:50;22.13;;;14.40;;
37655;SDS011;23498;50.958;3.124;2023-04-03T00:23:16;22.63;;;14.60;;
37655;SDS011;23498;50.958;3.124;2023-04-03T00:25:42;23.45;;;13.18;;
37655;SDS011;23498;50.958;3.124;2023-04-03T00:28:08;20.60;;;13.20;;
37655;SDS011;23498;50.958;3.124;2023-04-03T00:30:34;21.88;;;12.82;;
37655;SDS011;23498;50.958;3.124;2023-04-03T00:33:00;20.88;;;14.52;;
37655;SDS011;23498;50.958;3.124;2023-04-03T00:35:27;22.15;;;13.68;;
37655;SDS011;23498;50.958;3.124;2023-04-03T00:37:54;18.52;;;13.45;;
37655;SDS011;23498;50.958;3.124;2023-04-03T00:40:21;23.10;;;14.55;;
37655;SDS011;23498;50.958;3.124;2023-04-03T00:42:48;21.60;;;13.90;;
37655;SDS011;23498;50.958;3.124;2023-04-03T00:45:25;21.98;;;13.30;;
37655;SDS011;23498;50.958;3.124;2023-04-03T00:47:51;19.83;;;13.15;;
37655;SDS011;23498;50.958;3.124;2023-04-03T00:50:17;21.33;;;13.25;;
37655;SDS011;23498;50.958;3.124;2023-04-03T00:52:43;20.30;;;13.15;;
37655;SDS011;23498;50.958;3.124;2023-04-03T00:55:11;19.75;;;13.45;;
37655;SDS011;23498;50.958;3.124;2023-04-03T00:57:38;22.35;;;13.45;;
37655;SDS011;23498;50.958;3.124;2023-04-03T01:00:05;21.85;;;14.93;;
37655;SDS011;23498;50.958;3.124;2023-04-03T01:02:32;21.15;;;13.40;;
37655;SDS011;23498;50.958;3.124;2023-04-03T01:04:58;22.02;;;13.93;;
37655;SDS011;23498;50.958;3.124;2023-04-03T01:07:26;24.98;;;13.50;;
37655;SDS011;23498;50.958;3.124;2023-04-03T01:09:56;20.65;;;14.30;;
37655;SDS011;23498;50.958;3.124;2023-04-03T01:12:23;22.52;;;14.05;;
37655;SDS011;23498;50.958;3.124;2023-04-03T01:14:50;18.70;;;13.07;;
37655;SDS011;23498;50.958;3.124;2023-04-03T01:17:27;22.10;;;15.07;;
37655;SDS011;23498;50.958;3.124;2023-04-03T01:25:11;20.65;;;13.57;;
37655;SDS011;23498;50.958;3.124;2023-04-03T01:27:37;22.25;;;13.82;;
37655;SDS011;23498;50.958;3.124;2023-04-03T01:30:03;19.40;;;12.82;;
37655;SDS011;23498;50.958;3.124;2023-04-03T01:32:29;21.75;;;13.43;;
37655;SDS011;23498;50.958;3.124;2023-04-03T01:34:55;25.63;;;13.45;;
37655;SDS011;23498;50.958;3.124;2023-04-03T01:37:21;21.02;;;13.25;;
37655;SDS011;23498;50.958;3.124;2023-04-03T01:39:47;20.92;;;13.00;;
37655;SDS011;23498;50.958;3.124;2023-04-03T01:42:13;19.33;;;13.57;;
37655;SDS011;23498;50.958;3.124;2023-04-03T01:44:40;21.80;;;13.55;;
37655;SDS011;23498;50.958;3.124;2023-04-03T01:47:06;26.40;;;13.65;;
37655;SDS011;23498;50.958;3.124;2023-04-03T01:49:32;20.95;;;13.07;;
37655;SDS011;23498;50.958;3.124;2023-04-03T01:51:58;19.25;;;12.95;;
37655;SDS011;23498;50.958;3.124;2023-04-03T01:54:24;20.27;;;13.00;;
37655;SDS011;23498;50.958;3.124;2023-04-03T01:56:51;22.98;;;13.32;;
37655;SDS011;23498;50.958;3.124;2023-04-03T01:59:17;21.10;;;13.45;;
37655;SDS011;23498;50.958;3.124;2023-04-03T02:01:44;19.60;;;12.82;;
37655;SDS011;23498;50.958;3.124;2023-04-03T02:04:10;20.45;;;13.48;;
37655;SDS011;23498;50.958;3.124;2023-04-03T02:06:36;19.65;;;13.52;;
37655;SDS011;23498;50.958;3.124;2023-04-03T02:09:03;19.25;;;12.65;;
37655;SDS011;23498;50.958;3.124;2023-04-03T02:11:29;20.65;;;13.75;;
37655;SDS011;23498;50.958;3.124;2023-04-03T02:13:55;19.73;;;14.30;;
37655;SDS011;23498;50.958;3.124;2023-04-03T02:16:21;22.02;;;14.32;;
37655;SDS011;23498;50.958;3.124;2023-04-03T02:18:47;22.50;;;14.18;;
37655;SDS011;23498;50.958;3.124;2023-04-03T02:21:13;19.08;;;14.23;;
37655;SDS011;23498;50.958;3.124;2023-04-03T02:23:39;24.58;;;15.32;;
37655;SDS011;23498;50.958;3.124;2023-04-03T02:26:06;19.70;;;13.77;;
37655;SDS011;23498;50.958;3.124;2023-04-03T02:28:33;20.00;;;14.65;;
37655;SDS011;23498;50.958;3.124;2023-04-03T02:30:59;23.50;;;14.65;;
37655;SDS011;23498;50.958;3.124;2023-04-03T02:33:25;23.10;;;14.35;;
37655;SDS011;23498;50.958;3.124;2023-04-03T02:35:54;19.40;;;13.38;;
37655;SDS011;23498;50.958;3.124;2023-04-03T02:38:21;24.05;;;15.70;;
37655;SDS011;23498;50.958;3.124;2023-04-03T02:40:47;23.73;;;15.23;;
37655;SDS011;23498;50.958;3.124;2023-04-03T02:43:13;20.60;;;14.88;;
37655;SDS011;23498;50.958;3.124;2023-04-03T02:45:39;21.70;;;15.45;;
37655;SDS011;23498;50.958;3.124;2023-04-03T02:48:05;24.52;;;15.80;;
37655;SDS011;23498;50.958;3.124;2023-04-03T02:50:31;22.67;;;15.68;;
37655;SDS011;23498;50.958;3.124;2023-04-03T02:52:57;21.70;;;14.77;;
37655;SDS011;23498;50.958;3.124;2023-04-03T02:55:23;21.17;;;14.65;;
37655;SDS011;23498;50.958;3.124;2023-04-03T02:57:49;25.02;;;13.68;;
37655;SDS011;23498;50.958;3.124;2023-04-03T03:00:15;21.23;;;15.07;;
37655;SDS011;23498;50.958;3.124;2023-04-03T03:02:41;20.00;;;13.55;;
37655;SDS011;23498;50.958;3.124;2023-04-03T03:05:07;20.98;;;14.25;;
37655;SDS011;23498;50.958;3.124;2023-04-03T03:07:33;23.20;;;13.73;;
37655;SDS011;23498;50.958;3.124;2023-04-03T03:09:59;19.17;;;13.23;;
37655;SDS011;23498;50.958;3.124;2023-04-03T03:12:25;24.25;;;13.93;;
37655;SDS011;23498;50.958;3.124;2023-04-03T03:14:51;20.95;;;13.75;;
37655;SDS011;23498;50.958;3.124;2023-04-03T03:17:17;19.80;;;13.02;;
37655;SDS011;23498;50.958;3.124;2023-04-03T03:19:44;21.23;;;13.88;;
37655;SDS011;23498;50.958;3.124;2023-04-03T03:22:10;21.05;;;14.60;;
37655;SDS011;23498;50.958;3.124;2023-04-03T03:24:36;18.88;;;13.55;;
37655;SDS011;23498;50.958;3.124;2023-04-03T03:27:02;17.55;;;12.65;;
37655;SDS011;23498;50.958;3.124;2023-04-03T03:29:29;20.52;;;13.23;;
37655;SDS011;23498;50.958;3.124;2023-04-03T03:31:55;20.58;;;13.18;;
37655;SDS011;23498;50.958;3.124;2023-04-03T03:34:21;19.00;;;12.73;;
37655;SDS011;23498;50.958;3.124;2023-04-03T03:36:47;19.67;;;13.00;;
37655;SDS011;23498;50.958;3.124;2023-04-03T03:39:13;20.42;;;13.57;;
37655;SDS011;23498;50.958;3.124;2023-04-03T03:41:39;19.00;;;13.57;;
37655;SDS011;23498;50.958;3.124;2023-04-03T03:44:05;22.45;;;13.68;;
37655;SDS011;23498;50.958;3.124;2023-04-03T03:46:31;21.42;;;13.05;;
37655;SDS011;23498;50.958;3.124;2023-04-03T03:48:57;19.85;;;13.00;;
37655;SDS011;23498;50.958;3.124;2023-04-03T03:51:23;20.98;;;13.80;;
37655;SDS011;23498;50.958;3.124;2023-04-03T03:53:49;20.92;;;13.52;;
37655;SDS011;23498;50.958;3.124;2023-04-03T03:56:15;20.15;;;13.60;;
37655;SDS011;23498;50.958;3.124;2023-04-03T03:58:41;23.50;;;13.57;;
37655;SDS011;23498;50.958;3.124;2023-04-03T04:01:07;21.80;;;12.90;;
37655;SDS011;23498;50.958;3.124;2023-04-03T04:03:33;20.52;;;13.68;;
37655;SDS011;23498;50.958;3.124;2023-04-03T04:05:59;18.13;;;13.60;;
37655;SDS011;23498;50.958;3.124;2023-04-03T04:08:25;20.42;;;13.77;;
37655;SDS011;23498;50.958;3.124;2023-04-03T04:10:51;19.13;;;14.15;;
37655;SDS011;23498;50.958;3.124;2023-04-03T04:13:17;21.05;;;13.82;;
37655;SDS011;23498;50.958;3.124;2023-04-03T04:15:43;21.27;;;13.88;;
37655;SDS011;23498;50.958;3.124;2023-04-03T04:18:09;19.98;;;14.75;;
37655;SDS011;23498;50.958;3.124;2023-04-03T04:20:35;19.27;;;13.77;;
37655;SDS011;23498;50.958;3.124;2023-04-03T04:23:01;22.67;;;14.23;;
37655;SDS011;23498;50.958;3.124;2023-04-03T04:25:27;21.30;;;14.63;;
37655;SDS011;23498;50.958;3.124;2023-04-03T04:27:53;21.05;;;14.18;;
37655;SDS011;23498;50.958;3.124;2023-04-03T04:30:19;24.40;;;14.57;;
37655;SDS011;23498;50.958;3.124;2023-04-03T04:32:45;20.90;;;14.73;;
37655;SDS011;23498;50.958;3.124;2023-04-03T04:35:11;23.88;;;14.13;;
37655;SDS011;23498;50.958;3.124;2023-04-03T04:37:38;22.95;;;15.55;;
37655;SDS011;23498;50.958;3.124;2023-04-03T04:40:04;25.58;;;15.65;;
37655;SDS011;23498;50.958;3.124;2023-04-03T04:42:30;23.63;;;14.88;;
37655;SDS011;23498;50.958;3.124;2023-04-03T04:44:56;24.40;;;15.35;;
37655;SDS011;23498;50.958;3.124;2023-04-03T04:47:22;27.00;;;15.43;;
37655;SDS011;23498;50.958;3.124;2023-04-03T04:49:48;27.23;;;15.95;;
37655;SDS011;23498;50.958;3.124;2023-04-03T04:52:15;27.17;;;16.33;;
37655;SDS011;23498;50.958;3.124;2023-04-03T04:54:41;24.75;;;15.63;;
37655;SDS011;23498;50.958;3.124;2023-04-03T04:57:07;24.08;;;16.08;;
37655;SDS011;23498;50.958;3.124;2023-04-03T04:59:33;22.75;;;15.93;;
37655;SDS011;23498;50.958;3.124;2023-04-03T05:01:59;26.50;;;16.73;;
37655;SDS011;23498;50.958;3.124;2023-04-03T05:04:25;23.58;;;15.65;;
37655;SDS011;23498;50.958;3.124;2023-04-03T05:06:51;22.90;;;15.40;;
37655;SDS011;23498;50.958;3.124;2023-04-03T05:09:17;24.13;;;16.13;;
37655;SDS011;23498;50.958;3.124;2023-04-03T05:11:44;26.17;;;16.13;;
37655;SDS011;23498;50.958;3.124;2023-04-03T05:14:10;26.00;;;16.58;;
37655;SDS011;23498;50.958;3.124;2023-04-03T05:16:36;24.70;;;16.27;;
37655;SDS011;23498;50.958;3.124;2023-04-03T05:19:03;25.08;;;14.68;;
37655;SDS011;23498;50.958;3.124;2023-04-03T05:21:29;22.00;;;15.88;;
37655;SDS011;23498;50.958;3.124;2023-04-03T05:23:57;20.65;;;15.25;;
37655;SDS011;23498;50.958;3.124;2023-04-03T05:26:24;18.92;;;13.93;;
37655;SDS011;23498;50.958;3.124;2023-04-03T05:28:50;19.40;;;13.48;;
37655;SDS011;23498;50.958;3.124;2023-04-03T05:31:17;20.48;;;14.02;;
37655;SDS011;23498;50.958;3.124;2023-04-03T05:33:43;20.25;;;12.98;;
37655;SDS011;23498;50.958;3.124;2023-04-03T05:36:09;20.27;;;12.85;;
37655;SDS011;23498;50.958;3.124;2023-04-03T05:38:35;16.90;;;12.50;;
37655;SDS011;23498;50.958;3.124;2023-04-03T05:41:01;20.65;;;12.95;;
37655;SDS011;23498;50.958;3.124;2023-04-03T05:43:27;17.10;;;12.38;;
37655;SDS011;23498;50.958;3.124;2023-04-03T05:45:53;15.80;;;11.93;;
37655;SDS011;23498;50.958;3.124;2023-04-03T05:48:19;18.00;;;11.35;;
37655;SDS011;23498;50.958;3.124;2023-04-03T05:50:45;15.40;;;11.80;;
37655;SDS011;23498;50.958;3.124;2023-04-03T05:53:17;17.83;;;11.70;;
37655;SDS011;23498;50.958;3.124;2023-04-03T05:55:44;18.75;;;12.38;;
37655;SDS011;23498;50.958;3.124;2023-04-03T05:58:10;16.90;;;11.52;;
37655;SDS011;23498;50.958;3.124;2023-04-03T06:00:36;16.75;;;11.07;;
37655;SDS011;23498;50.958;3.124;2023-04-03T06:03:02;15.98;;;11.75;;
37655;SDS011;23498;50.958;3.124;2023-04-03T06:05:28;17.08;;;11.77;;
37655;SDS011;23498;50.958;3.124;2023-04-03T06:07:55;16.92;;;12.20;;
37655;SDS011;23498;50.958;3.124;2023-04-03T06:10:22;19.90;;;12.75;;
37655;SDS011;23498;50.958;3.124;2023-04-03T06:12:48;16.55;;;11.38;;
37655;SDS011;23498;50.958;3.124;2023-04-03T06:15:14;18.20;;;12.32;;
37655;SDS011;23498;50.958;3.124;2023-04-03T06:17:41;15.40;;;11.50;;
37655;SDS011;23498;50.958;3.124;2023-04-03T06:20:08;19.15;;;12.25;;
37655;SDS011;23498;50.958;3.124;2023-04-03T06:22:34;17.52;;;11.93;;
37655;SDS011;23498;50.958;3.124;2023-04-03T06:25:00;16.65;;;12.13;;
37655;SDS011;23498;50.958;3.124;2023-04-03T06:27:26;15.90;;;12.18;;
37655;SDS011;23498;50.958;3.124;2023-04-03T06:29:52;18.17;;;11.52;;
37655;SDS011;23498;50.958;3.124;2023-04-03T06:32:18;18.83;;;11.13;;
37655;SDS011;23498;50.958;3.124;2023-04-03T06:34:45;16.70;;;11.35;;
37655;SDS011;23498;50.958;3.124;2023-04-03T06:37:18;15.73;;;11.80;;
37655;SDS011;23498;50.958;3.124;2023-04-03T06:39:45;16.63;;;11.55;;
37655;SDS011;23498;50.958;3.124;2023-04-03T06:42:11;13.77;;;10.88;;
37655;SDS011;23498;50.958;3.124;2023-04-03T06:44:38;19.13;;;11.75;;
37655;SDS011;23498;50.958;3.124;2023-04-03T06:47:04;15.38;;;11.75;;
37655;SDS011;23498;50.958;3.124;2023-04-03T06:49:30;14.95;;;10.82;;
37655;SDS011;23498;50.958;3.124;2023-04-03T06:51:57;17.15;;;11.05;;
37655;SDS011;23498;50.958;3.124;2023-04-03T06:54:23;17.60;;;10.32;;
37655;SDS011;23498;50.958;3.124;2023-04-03T06:56:49;14.27;;;10.20;;
37655;SDS011;23498;50.958;3.124;2023-04-03T06:59:16;14.07;;;9.85;;
37655;SDS011;23498;50.958;3.124;2023-04-03T07:01:42;14.25;;;10.35;;
37655;SDS011;23498;50.958;3.124;2023-04-03T07:04:08;15.23;;;10.10;;
37655;SDS011;23498;50.958;3.124;2023-04-03T07:06:34;15.70;;;10.30;;
37655;SDS011;23498;50.958;3.124;2023-04-03T07:09:00;16.38;;;10.55;;
37655;SDS011;23498;50.958;3.124;2023-04-03T07:11:27;17.10;;;10.27;;
37655;SDS011;23498;50.958;3.124;2023-04-03T07:13:53;12.40;;;9.20;;
37655;SDS011;23498;50.958;3.124;2023-04-03T07:16:19;13.63;;;9.45;;
37655;SDS011;23498;50.958;3.124;2023-04-03T07:18:45;15.80;;;9.30;;
37655;SDS011;23498;50.958;3.124;2023-04-03T07:21:12;12.43;;;8.73;;
37655;SDS011;23498;50.958;3.124;2023-04-03T07:23:38;12.50;;;8.85;;
37655;SDS011;23498;50.958;3.124;2023-04-03T07:26:04;12.63;;;8.98;;
37655;SDS011;23498;50.958;3.124;2023-04-03T07:28:31;12.15;;;8.90;;
37655;SDS011;23498;50.958;3.124;2023-04-03T07:31:04;12.35;;;8.18;;
37655;SDS011;23498;50.958;3.124;2023-04-03T07:33:33;12.13;;;8.30;;
37655;SDS011;23498;50.958;3.124;2023-04-03T07:35:59;14.57;;;8.25;;
37655;SDS011;23498;50.958;3.124;2023-04-03T07:38:26;10.95;;;7.85;;
37655;SDS011;23498;50.958;3.124;2023-04-03T07:40:52;14.93;;;7.35;;
37655;SDS011;23498;50.958;3.124;2023-04-03T07:43:18;13.20;;;7.28;;
37655;SDS011;23498;50.958;3.124;2023-04-03T07:45:45;10.23;;;7.35;;
37655;SDS011;23498;50.958;3.124;2023-04-03T07:48:12;11.07;;;6.70;;
37655;SDS011;23498;50.958;3.124;2023-04-03T07:50:41;12.20;;;7.50;;
37655;SDS011;23498;50.958;3.124;2023-04-03T07:53:07;10.18;;;7.38;;
37655;SDS011;23498;50.958;3.124;2023-04-03T07:55:33;16.42;;;8.10;;
37655;SDS011;23498;50.958;3.124;2023-04-03T07:58:02;10.02;;;7.13;;
37655;SDS011;23498;50.958;3.124;2023-04-03T08:00:28;10.38;;;7.38;;
37655;SDS011;23498;50.958;3.124;2023-04-03T08:02:54;13.23;;;7.22;;
37655;SDS011;23498;50.958;3.124;2023-04-03T08:05:21;10.00;;;6.25;;
37655;SDS011;23498;50.958;3.124;2023-04-03T08:07:47;11.38;;;6.80;;
37655;SDS011;23498;50.958;3.124;2023-04-03T08:10:13;8.88;;;5.95;;
37655;SDS011;23498;50.958;3.124;2023-04-03T08:12:40;9.65;;;5.88;;
37655;SDS011;23498;50.958;3.124;2023-04-03T08:15:06;11.25;;;6.13;;
37655;SDS011;23498;50.958;3.124;2023-04-03T08:17:33;10.10;;;6.50;;
37655;SDS011;23498;50.958;3.124;2023-04-03T08:19:59;9.13;;;6.53;;
37655;SDS011;23498;50.958;3.124;2023-04-03T08:22:26;9.38;;;6.05;;
37655;SDS011;23498;50.958;3.124;2023-04-03T08:24:52;8.95;;;5.25;;
37655;SDS011;23498;50.958;3.124;2023-04-03T08:27:18;8.07;;;5.35;;
37655;SDS011;23498;50.958;3.124;2023-04-03T08:29:44;9.07;;;4.47;;
37655;SDS011;23498;50.958;3.124;2023-04-03T08:32:10;7.93;;;5.13;;
37655;SDS011;23498;50.958;3.124;2023-04-03T08:34:36;9.02;;;5.32;;
37655;SDS011;23498;50.958;3.124;2023-04-03T08:37:04;8.02;;;4.85;;
37655;SDS011;23498;50.958;3.124;2023-04-03T08:39:30;11.90;;;6.28;;
37655;SDS011;23498;50.958;3.124;2023-04-03T08:41:57;8.32;;;5.50;;
37655;SDS011;23498;50.958;3.124;2023-04-03T08:49:43;8.48;;;5.65;;
37655;SDS011;23498;50.958;3.124;2023-04-03T08:52:15;11.10;;;7.10;;
37655;SDS011;23498;50.958;3.124;2023-04-03T08:54:53;11.30;;;7.43;;
37655;SDS011;23498;50.958;3.124;2023-04-03T08:57:26;11.70;;;7.95;;
37655;SDS011;23498;50.958;3.124;2023-04-03T08:59:53;14.30;;;8.00;;
37655;SDS011;23498;50.958;3.124;2023-04-03T09:02:31;12.30;;;8.82;;
37655;SDS011;23498;50.958;3.124;2023-04-03T09:04:58;11.07;;;8.48;;
37655;SDS011;23498;50.958;3.124;2023-04-03T09:07:47;15.57;;;9.30;;
37655;SDS011;23498;50.958;3.124;2023-04-03T09:10:12;17.60;;;9.48;;
37655;SDS011;23498;50.958;3.124;2023-04-03T09:12:46;14.57;;;8.48;;
37655;SDS011;23498;50.958;3.124;2023-04-03T09:15:17;15.15;;;9.07;;
37655;SDS011;23498;50.958;3.124;2023-04-03T09:22:41;11.60;;;7.63;;
37655;SDS011;23498;50.958;3.124;2023-04-03T09:25:14;12.93;;;7.85;;
37655;SDS011;23498;50.958;3.124;2023-04-03T09:27:41;12.38;;;8.63;;
37655;SDS011;23498;50.958;3.124;2023-04-03T09:30:23;17.52;;;8.52;;
37655;SDS011;23498;50.958;3.124;2023-04-03T09:32:53;11.55;;;7.80;;
37655;SDS011;23498;50.958;3.124;2023-04-03T09:37:47;12.38;;;8.05;;
37655;SDS011;23498;50.958;3.124;2023-04-03T09:42:48;16.60;;;9.68;;
37655;SDS011;23498;50.958;3.124;2023-04-03T09:45:21;13.55;;;9.15;;
37655;SDS011;23498;50.958;3.124;2023-04-03T09:48:03;12.80;;;8.90;;
37655;SDS011;23498;50.958;3.124;2023-04-03T09:53:39;11.87;;;7.40;;
37655;SDS011;23498;50.958;3.124;2023-04-03T09:58:42;9.85;;;7.20;;
37655;SDS011;23498;50.958;3.124;2023-04-03T10:01:56;11.00;;;7.75;;
37655;SDS011;23498;50.958;3.124;2023-04-03T10:06:46;11.73;;;7.95;;
37655;SDS011;23498;50.958;3.124;2023-04-03T10:14:29;12.20;;;7.72;;
37655;SDS011;23498;50.958;3.124;2023-04-03T10:22:02;9.18;;;6.28;;
37655;SDS011;23498;50.958;3.124;2023-04-03T10:27:03;9.53;;;5.17;;
37655;SDS011;23498;50.958;3.124;2023-04-03T10:34:42;9.40;;;4.90;;
37655;SDS011;23498;50.958;3.124;2023-04-03T10:37:22;7.88;;;5.68;;
37655;SDS011;23498;50.958;3.124;2023-04-03T10:39:53;9.10;;;5.97;;
37655;SDS011;23498;50.958;3.124;2023-04-03T10:42:25;11.10;;;6.28;;
37655;SDS011;23498;50.958;3.124;2023-04-03T10:44:57;12.10;;;6.57;;
37655;SDS011;23498;50.958;3.124;2023-04-03T10:47:35;10.77;;;6.97;;
37655;SDS011;23498;50.958;3.124;2023-04-03T10:50:12;11.35;;;6.18;;
37655;SDS011;23498;50.958;3.124;2023-04-03T10:52:43;10.57;;;5.63;;
37655;SDS011;23498;50.958;3.124;2023-04-03T10:55:27;9.63;;;6.28;;
37655;SDS011;23498;50.958;3.124;2023-04-03T10:57:57;7.75;;;5.38;;
37655;SDS011;23498;50.958;3.124;2023-04-03T11:00:35;6.68;;;4.60;;
37655;SDS011;23498;50.958;3.124;2023-04-03T11:03:06;12.55;;;4.97;;
37655;SDS011;23498;50.958;3.124;2023-04-03T11:05:48;8.00;;;4.20;;
37655;SDS011;23498;50.958;3.124;2023-04-03T11:10:57;7.40;;;4.13;;
37655;SDS011;23498;50.958;3.124;2023-04-03T11:13:34;6.53;;;4.00;;
37655;SDS011;23498;50.958;3.124;2023-04-03T11:16:00;8.75;;;4.25;;
37655;SDS011;23498;50.958;3.124;2023-04-03T11:19:31;7.03;;;3.78;;
37655;SDS011;23498;50.958;3.124;2023-04-03T11:23:51;9.20;;;4.18;;
37655;SDS011;23498;50.958;3.124;2023-04-03T11:26:18;7.50;;;3.85;;
37655;SDS011;23498;50.958;3.124;2023-04-03T11:28:45;7.30;;;3.65;;
37655;SDS011;23498;50.958;3.124;2023-04-03T11:33:49;5.03;;;3.08;;
37655;SDS011;23498;50.958;3.124;2023-04-03T11:36:24;7.10;;;3.08;;
37655;SDS011;23498;50.958;3.124;2023-04-03T11:38:52;8.82;;;2.80;;
37655;SDS011;23498;50.958;3.124;2023-04-03T11:41:24;6.10;;;3.17;;
37655;SDS011;23498;50.958;3.124;2023-04-03T11:46:56;4.28;;;2.50;;
37655;SDS011;23498;50.958;3.124;2023-04-03T11:52:09;5.03;;;2.75;;
37655;SDS011;23498;50.958;3.124;2023-04-03T11:59:46;6.05;;;3.22;;
37655;SDS011;23498;50.958;3.124;2023-04-03T12:07:42;5.45;;;2.95;;
37655;SDS011;23498;50.958;3.124;2023-04-03T12:10:15;5.72;;;2.50;;
37655;SDS011;23498;50.958;3.124;2023-04-03T12:12:42;7.38;;;2.60;;
37655;SDS011;23498;50.958;3.124;2023-04-03T12:15:12;7.07;;;2.80;;
37655;SDS011;23498;50.958;3.124;2023-04-03T12:17:43;4.53;;;2.53;;
37655;SDS011;23498;50.958;3.124;2023-04-03T12:23:07;4.80;;;2.70;;
37655;SDS011;23498;50.958;3.124;2023-04-03T12:25:47;4.65;;;2.45;;
37655;SDS011;23498;50.958;3.124;2023-04-03T12:28:14;4.85;;;2.50;;
37655;SDS011;23498;50.958;3.124;2023-04-03T12:30:40;4.38;;;2.50;;
37655;SDS011;23498;50.958;3.124;2023-04-03T12:33:23;4.85;;;2.50;;
37655;SDS011;23498;50.958;3.124;2023-04-03T12:36:13;5.75;;;2.33;;
37655;SDS011;23498;50.958;3.124;2023-04-03T12:41:44;4.93;;;1.83;;
37655;SDS011;23498;50.958;3.124;2023-04-03T12:46:58;5.05;;;2.00;;
37655;SDS011;23498;50.958;3.124;2023-04-03T12:51:55;4.50;;;2.15;;
37655;SDS011;23498;50.958;3.124;2023-04-03T12:56:47;5.07;;;2.17;;
37655;SDS011;23498;50.958;3.124;2023-04-03T12:59:23;3.92;;;1.88;;
37655;SDS011;23498;50.958;3.124;2023-04-03T13:01:56;4.35;;;1.88;;
37655;SDS011;23498;50.958;3.124;2023-04-03T13:04:22;5.13;;;2.17;;
37655;SDS011;23498;50.958;3.124;2023-04-03T13:06:48;4.53;;;1.77;;
37655;SDS011;23498;50.958;3.124;2023-04-03T13:11:46;9.65;;;1.83;;
37655;SDS011;23498;50.958;3.124;2023-04-03T13:14:15;4.07;;;1.55;;
37655;SDS011;23498;50.958;3.124;2023-04-03T13:16:41;3.88;;;1.58;;
37655;SDS011;23498;50.958;3.124;2023-04-03T13:19:15;5.60;;;2.03;;
37655;SDS011;23498;50.958;3.124;2023-04-03T13:21:41;4.20;;;1.90;;
37655;SDS011;23498;50.958;3.124;2023-04-03T13:24:09;3.78;;;1.98;;
37655;SDS011;23498;50.958;3.124;2023-04-03T13:26:35;4.70;;;1.85;;
37655;SDS011;23498;50.958;3.124;2023-04-03T13:29:02;5.57;;;2.28;;
37655;SDS011;23498;50.958;3.124;2023-04-03T13:31:29;5.10;;;2.63;;
37655;SDS011;23498;50.958;3.124;2023-04-03T13:34:07;5.30;;;2.45;;
37655;SDS011;23498;50.958;3.124;2023-04-03T13:36:40;5.97;;;2.90;;
37655;SDS011;23498;50.958;3.124;2023-04-03T13:39:20;8.52;;;2.60;;
37655;SDS011;23498;50.958;3.124;2023-04-03T13:41:47;6.20;;;2.30;;
37655;SDS011;23498;50.958;3.124;2023-04-03T13:46:52;7.57;;;2.83;;
37655;SDS011;23498;50.958;3.124;2023-04-03T13:51:45;4.85;;;2.45;;
37655;SDS011;23498;50.958;3.124;2023-04-03T13:54:56;3.60;;;2.08;;
37655;SDS011;23498;50.958;3.124;2023-04-03T13:57:01;4.43;;;2.28;;
37655;SDS011;23498;50.958;3.124;2023-04-03T14:01:55;4.93;;;2.47;;
37655;SDS011;23498;50.958;3.124;2023-04-03T14:06:58;7.40;;;2.45;;
37655;SDS011;23498;50.958;3.124;2023-04-03T14:09:25;4.45;;;2.03;;
37655;SDS011;23498;50.958;3.124;2023-04-03T14:11:53;5.15;;;2.17;;
37655;SDS011;23498;50.958;3.124;2023-04-03T14:14:22;4.93;;;2.20;;
37655;SDS011;23498;50.958;3.124;2023-04-03T14:16:51;5.28;;;2.10;;
37655;SDS011;23498;50.958;3.124;2023-04-03T14:19:28;5.28;;;2.33;;
37655;SDS011;23498;50.958;3.124;2023-04-03T14:21:55;4.95;;;2.20;;
37655;SDS011;23498;50.958;3.124;2023-04-03T14:24:22;5.78;;;2.67;;
37655;SDS011;23498;50.958;3.124;2023-04-03T14:26:49;5.40;;;2.40;;
37655;SDS011;23498;50.958;3.124;2023-04-03T14:29:15;5.38;;;2.58;;
37655;SDS011;23498;50.958;3.124;2023-04-03T14:31:42;5.55;;;2.40;;
37655;SDS011;23498;50.958;3.124;2023-04-03T14:34:09;5.63;;;2.28;;
37655;SDS011;23498;50.958;3.124;2023-04-03T14:36:36;7.15;;;2.70;;
37655;SDS011;23498;50.958;3.124;2023-04-03T14:39:03;5.00;;;2.10;;
37655;SDS011;23498;50.958;3.124;2023-04-03T14:41:29;5.32;;;2.40;;
37655;SDS011;23498;50.958;3.124;2023-04-03T14:43:56;8.43;;;2.50;;
37655;SDS011;23498;50.958;3.124;2023-04-03T14:46:25;4.95;;;2.83;;
37655;SDS011;23498;50.958;3.124;2023-04-03T14:48:52;7.35;;;2.50;;
37655;SDS011;23498;50.958;3.124;2023-04-03T14:51:18;7.28;;;2.50;;
37655;SDS011;23498;50.958;3.124;2023-04-03T14:53:44;5.97;;;2.10;;
37655;SDS011;23498;50.958;3.124;2023-04-03T14:56:11;5.30;;;2.10;;
37655;SDS011;23498;50.958;3.124;2023-04-03T14:58:37;6.10;;;1.92;;
37655;SDS011;23498;50.958;3.124;2023-04-03T15:01:03;4.93;;;2.38;;
37655;SDS011;23498;50.958;3.124;2023-04-03T15:03:29;5.68;;;2.00;;
37655;SDS011;23498;50.958;3.124;2023-04-03T15:05:55;6.22;;;2.70;;
37655;SDS011;23498;50.958;3.124;2023-04-03T15:08:23;5.38;;;1.92;;
37655;SDS011;23498;50.958;3.124;2023-04-03T15:10:50;5.18;;;2.30;;
37655;SDS011;23498;50.958;3.124;2023-04-03T15:13:20;5.07;;;2.15;;
37655;SDS011;23498;50.958;3.124;2023-04-03T15:15:46;5.50;;;2.10;;
37655;SDS011;23498;50.958;3.124;2023-04-03T15:18:23;8.15;;;2.28;;
37655;SDS011;23498;50.958;3.124;2023-04-03T15:20:51;6.53;;;2.55;;
37655;SDS011;23498;50.958;3.124;2023-04-03T15:23:17;6.22;;;2.50;;
37655;SDS011;23498;50.958;3.124;2023-04-03T15:25:44;5.82;;;2.45;;
37655;SDS011;23498;50.958;3.124;2023-04-03T15:28:17;5.30;;;2.20;;
37655;SDS011;23498;50.958;3.124;2023-04-03T15:30:44;3.75;;;2.00;;
37655;SDS011;23498;50.958;3.124;2023-04-03T15:33:10;4.85;;;2.13;;
37655;SDS011;23498;50.958;3.124;2023-04-03T15:35:36;5.25;;;2.47;;
37655;SDS011;23498;50.958;3.124;2023-04-03T15:38:02;4.60;;;2.00;;
37655;SDS011;23498;50.958;3.124;2023-04-03T15:40:28;5.60;;;2.15;;
37655;SDS011;23498;50.958;3.124;2023-04-03T15:42:54;4.30;;;2.10;;
37655;SDS011;23498;50.958;3.124;2023-04-03T15:45:20;4.35;;;2.30;;
37655;SDS011;23498;50.958;3.124;2023-04-03T15:47:46;6.63;;;2.30;;
37655;SDS011;23498;50.958;3.124;2023-04-03T15:50:12;5.13;;;2.00;;
37655;SDS011;23498;50.958;3.124;2023-04-03T15:52:39;4.18;;;2.03;;
37655;SDS011;23498;50.958;3.124;2023-04-03T15:55:05;7.60;;;2.40;;
37655;SDS011;23498;50.958;3.124;2023-04-03T15:57:31;4.40;;;2.08;;
37655;SDS011;23498;50.958;3.124;2023-04-03T15:59:57;6.28;;;1.80;;
37655;SDS011;23498;50.958;3.124;2023-04-03T16:02:23;5.00;;;2.22;;
37655;SDS011;23498;50.958;3.124;2023-04-03T16:04:52;5.28;;;2.10;;
37655;SDS011;23498;50.958;3.124;2023-04-03T16:07:18;4.47;;;2.15;;
37655;SDS011;23498;50.958;3.124;2023-04-03T16:09:44;5.38;;;2.33;;
37655;SDS011;23498;50.958;3.124;2023-04-03T16:12:10;5.43;;;2.10;;
37655;SDS011;23498;50.958;3.124;2023-04-03T16:14:37;5.38;;;2.10;;